createdAt,value
2022-10-31T00:00:56.047Z,69.93
2022-10-31T00:03:32.375Z,70.11
2022-10-31T00:06:03.668Z,69.54
2022-10-31T00:08:46.985Z,69.86
2022-10-31T00:11:15.981Z,70.25
2022-10-31T00:13:49.415Z,70.46
2022-10-31T00:16:24.618Z,70.11
2022-10-31T00:19:21.580Z,70.49
2022-10-31T00:21:50.338Z,69.93
2022-10-31T00:24:25.563Z,70.73
2022-10-31T00:26:55.762Z,70.31
2022-10-31T00:29:28.634Z,70.11
2022-10-31T00:31:59.526Z,69.79
2022-10-31T00:34:56.502Z,71.69
2022-10-31T00:37:40.899Z,73.19
2022-10-31T00:40:20.757Z,74.10
2022-10-31T00:45:48.392Z,75.09
2022-10-31T00:48:39.077Z,74.76
2022-10-31T00:51:32.709Z,74.22
2022-10-31T00:54:24.151Z,74.51
2022-10-31T00:57:21.502Z,73.40
2022-10-31T00:59:51.922Z,71.53
2022-10-31T01:02:36.528Z,72.00
2022-10-31T01:05:26.494Z,71.05
2022-10-31T01:08:08.948Z,71.54
2022-10-31T01:10:37.987Z,72.12
2022-10-31T01:13:16.359Z,71.11
2022-10-31T01:16:07.077Z,71.55
2022-10-31T01:18:40.239Z,71.82
2022-10-31T01:21:31.265Z,71.52
2022-10-31T01:24:16.996Z,71.52
2022-10-31T01:26:49.918Z,73.52
2022-10-31T01:29:19.853Z,71.82
2022-10-31T01:31:48.747Z,71.65
2022-10-31T01:34:19.653Z,70.85
2022-10-31T01:36:55.949Z,70.15
2022-10-31T01:39:29.501Z,69.75
2022-10-31T01:42:22.005Z,70.60
2022-10-31T01:45:02.088Z,69.68
2022-10-31T01:48:17.761Z,70.05
2022-10-31T01:50:56.050Z,69.70
2022-10-31T01:53:26.973Z,70.12
2022-10-31T01:55:57.832Z,70.02
2022-10-31T01:58:43.510Z,70.74
2022-10-31T02:01:11.161Z,71.04
2022-10-31T02:03:45.480Z,70.87
2022-10-31T02:06:47.774Z,71.56
2022-10-31T02:09:37.713Z,72.49
2022-10-31T02:12:07.378Z,73.80
2022-10-31T02:15:07.650Z,72.87
2022-10-31T02:17:44.951Z,71.20
2022-10-31T02:20:24.765Z,71.80
2022-10-31T02:23:54.060Z,71.98
2022-10-31T02:26:46.719Z,73.13
2022-10-31T02:29:34.275Z,72.31
2022-10-31T02:32:45.258Z,71.14
2022-10-31T02:35:42.879Z,71.66
2022-10-31T02:38:24.434Z,71.86
2022-10-31T02:41:21.314Z,71.16
2022-10-31T02:44:10.818Z,71.03
2022-10-31T02:46:44.366Z,71.74
2022-10-31T02:49:36.116Z,72.59
2022-10-31T02:52:35.348Z,76.98
2022-10-31T02:55:24.072Z,76.32
2022-10-31T02:58:09.051Z,74.79
2022-10-31T03:01:04.036Z,77.83
2022-10-31T03:03:46.553Z,75.49
2022-10-31T03:06:37.665Z,75.41
2022-10-31T03:09:43.011Z,75.81
2022-10-31T03:12:18.284Z,75.55
2022-10-31T03:15:32.274Z,74.63
2022-10-31T03:18:32.997Z,74.00
2022-10-31T03:21:31.760Z,73.92
2022-10-31T03:24:02.504Z,72.83
2022-10-31T03:26:33.571Z,73.03
2022-10-31T03:29:06.431Z,72.74
2022-10-31T03:31:49.246Z,72.13
2022-10-31T03:34:19.316Z,72.08
2022-10-31T03:37:12.082Z,71.98
2022-10-31T03:39:44.495Z,71.24
2022-10-31T03:42:35.197Z,71.11
2022-10-31T03:45:21.042Z,71.80
2022-10-31T03:47:50.342Z,72.33
2022-10-31T03:50:19.741Z,71.34
2022-10-31T03:53:03.727Z,72.04
2022-10-31T03:55:51.001Z,71.39
2022-10-31T03:58:28.161Z,71.23
2022-10-31T04:00:58.042Z,71.12
2022-10-31T04:03:38.903Z,70.76
2022-10-31T04:06:18.534Z,71.01
2022-10-31T04:09:04.819Z,70.75
2022-10-31T04:12:16.126Z,70.22
2022-10-31T04:14:56.184Z,70.03
2022-10-31T04:17:40.579Z,71.17
2022-10-31T04:20:10.447Z,71.24
2022-10-31T04:22:42.796Z,70.76
2022-10-31T04:25:15.291Z,70.16
2022-10-31T04:27:47.150Z,69.25
2022-10-31T04:30:20.319Z,69.97
2022-10-31T04:32:52.156Z,69.75
2022-10-31T04:35:37.476Z,69.95
2022-10-31T04:38:33.095Z,69.62
2022-10-31T04:41:06.886Z,70.01
2022-10-31T04:43:36.895Z,68.74
2022-10-31T04:46:07.538Z,68.80
2022-10-31T04:48:35.496Z,67.90
2022-10-31T04:51:04.665Z,68.03
2022-10-31T04:53:46.674Z,68.89
2022-10-31T04:56:20.083Z,69.80
2022-10-31T04:58:52.739Z,68.84
2022-10-31T05:01:44.952Z,67.85
2022-10-31T05:04:37.932Z,68.42
2022-10-31T05:07:07.275Z,68.26
2022-10-31T05:09:37.839Z,69.32
2022-10-31T05:12:06.595Z,69.89
2022-10-31T05:14:52.844Z,69.76
2022-10-31T05:17:27.832Z,69.62
2022-10-31T05:20:03.649Z,69.84
2022-10-31T05:22:35.928Z,69.94
2022-10-31T06:29:52.901Z,74.25
2022-10-31T07:27:57.765Z,72.02
2022-10-31T07:39:43.035Z,71.59
2022-10-31T10:45:49.460Z,71.48
2022-10-31T10:53:34.995Z,70.40
2022-10-31T10:57:45.395Z,70.42
2022-10-31T11:01:23.576Z,70.54
2022-10-31T11:34:38.199Z,71.69
2022-10-31T12:22:41.766Z,69.58
2022-10-31T13:09:51.059Z,69.74
2022-10-31T13:36:44.421Z,70.96
2022-10-31T13:40:37.118Z,71.59
2022-10-31T13:48:09.668Z,71.19
2022-10-31T14:23:07.798Z,71.18
2022-10-31T14:31:47.173Z,71.11
2022-10-31T14:50:43.492Z,71.50
2022-10-31T14:54:04.576Z,72.50
2022-10-31T14:58:10.696Z,71.45
2022-10-31T15:09:56.840Z,72.25
2022-10-31T15:26:39.323Z,72.53
2022-10-31T15:30:24.525Z,72.85
2022-10-31T15:38:18.483Z,73.40
2022-10-31T15:42:01.973Z,72.68
2022-10-31T15:50:11.289Z,70.80
2022-10-31T15:53:42.354Z,71.70
2022-10-31T16:31:08.355Z,72.99
2022-10-31T16:36:34.770Z,72.25
2022-10-31T16:39:09.822Z,72.85
2022-10-31T16:57:10.629Z,71.93
2022-10-31T17:04:13.507Z,72.86
2022-10-31T17:14:42.729Z,73.37
2022-10-31T17:18:09.109Z,74.03
2022-10-31T17:22:00.225Z,74.52
2022-10-31T17:32:09.292Z,72.49
2022-10-31T17:42:27.220Z,74.22
2022-10-31T17:49:53.052Z,73.21
2022-10-31T18:15:04.236Z,74.75
2022-10-31T18:22:15.252Z,74.82
2022-10-31T18:29:49.915Z,74.45
2022-10-31T18:38:13.674Z,76.19
2022-10-31T18:44:05.364Z,74.74
2022-10-31T18:47:27.435Z,75.69
2022-10-31T18:54:33.080Z,75.08
2022-10-31T18:58:13.527Z,74.92
2022-10-31T19:05:35.866Z,75.19
2022-10-31T19:12:16.446Z,74.57
2022-10-31T19:16:29.531Z,74.60
2022-10-31T19:23:04.297Z,73.87
2022-10-31T19:26:35.453Z,73.67
2022-10-31T19:30:13.715Z,74.28
2022-10-31T19:38:49.783Z,74.98
2022-10-31T19:48:23.676Z,75.02
2022-10-31T19:59:16.450Z,74.74
2022-10-31T20:09:48.856Z,75.22
2022-10-31T20:16:01.732Z,74.52
2022-10-31T20:19:12.601Z,75.27
2022-10-31T20:22:22.976Z,74.51
2022-10-31T20:29:26.621Z,74.38
2022-10-31T20:32:52.159Z,74.07
2022-10-31T20:36:04.353Z,73.93
2022-10-31T20:42:14.620Z,73.95
2022-10-31T20:45:15.184Z,74.70
2022-10-31T20:48:35.068Z,75.00
2022-10-31T20:51:26.190Z,74.79
2022-10-31T20:58:00.792Z,74.79
2022-10-31T21:01:36.777Z,75.38
2022-10-31T21:04:42.590Z,74.92
2022-10-31T21:10:49.482Z,74.53
2022-10-31T21:13:59.875Z,74.40
2022-10-31T21:17:06.508Z,74.29
2022-10-31T21:19:54.179Z,74.67
2022-10-31T21:23:12.528Z,74.94
2022-10-31T21:26:39.964Z,75.25
2022-10-31T21:29:51.859Z,75.08
2022-10-31T21:33:11.166Z,74.88
2022-10-31T21:36:43.447Z,76.65
2022-10-31T21:39:54.939Z,75.43
2022-10-31T21:42:46.624Z,74.84
2022-10-31T21:46:08.967Z,74.79
2022-10-31T21:49:11.495Z,74.58
2022-10-31T21:52:31.871Z,74.71
2022-10-31T21:56:19.283Z,75.31
2022-10-31T21:59:58.287Z,75.31
2022-10-31T22:03:09.292Z,74.75
2022-10-31T22:06:32.209Z,74.64
2022-10-31T22:09:50.089Z,75.49
2022-10-31T22:16:29.593Z,75.05
2022-10-31T22:19:34.483Z,74.88
2022-10-31T22:22:50.120Z,75.49
2022-10-31T22:25:58.972Z,75.11
2022-10-31T22:29:04.280Z,75.03
2022-10-31T22:32:38.634Z,75.05
2022-10-31T22:36:11.880Z,74.32
2022-10-31T22:39:28.766Z,74.22
2022-10-31T22:42:43.399Z,74.15
2022-10-31T22:46:34.172Z,74.55
2022-10-31T22:56:00.769Z,75.14
2022-10-31T22:59:12.391Z,75.33
2022-10-31T23:02:23.863Z,75.53
2022-10-31T23:06:55.459Z,74.99
2022-10-31T23:16:35.780Z,74.24
2022-10-31T23:20:11.944Z,75.54
2022-10-31T23:23:43.290Z,75.61
2022-10-31T23:27:10.851Z,75.13
2022-10-31T23:30:16.848Z,74.55
2022-10-31T23:33:09.376Z,75.32
2022-10-31T23:36:21.781Z,75.69
2022-10-31T23:39:45.712Z,75.23
2022-10-31T23:43:06.155Z,75.30
2022-10-31T23:46:18.911Z,76.75
2022-10-31T23:49:32.577Z,76.69
2022-10-31T23:52:27.227Z,75.37
2022-10-31T23:58:51.856Z,76.13
